Portada
METAR-TAF:

METAR-TAF

Aeroports :

Orsk, Rússia

latitud: 51-04-18N, longitud: 058-35-48E, altitud: 277 m

Observació

L'informe es va fer fa 1 hora i 9 minuts, a les 03:00 UTC
Vent 4 kt del Sud/Sud-Est
Temperatura 0°C
Humitat 74%
Pressió 1021 hPa
Visibilitat 10 km o més
sense núvols per sota de 1500 mi sense presència de cumulonimbus.

METAR: UWOR 300300Z 15002MPS CAVOK M00/M04 Q1021 R25/CLRD65 NOSIG RMK QFE742/0990

Hora: 09:09 (04:09 UTC)

Pronòstic

L'informe es va fer fa 2 hores i 22 minuts, a les 01:47 UTC
Pronòstic vàlid del 30 a les 03 UTC al 30 a les 12 UTC
Vent 10 kt del Sud/Sud-Est amb ràfegues de 19 kt
Visibilitat 10 km o més
Núvols disperses a una alçada de 3000 ft
Temporalment
l' 30 a les 03 UTC al 30 a les 12 UTC
Vent 14 kt del Sud-Est amb ràfegues de 25 kt

TAF: UWOR 300147Z 3003/3012 16005G10MPS 9999 SCT030 TX12/3009Z TNM03/3003Z TEMPO 3003/3012 13007G13MPS

Observacions i pronòstics meteorològics de més de 4000 aeroports (METAR i TAF).

Les estacions disponibles són els punts grocs i vermells al mapa.

Posi el ratolí al punt desitjat per veure el nom de l'estació.

Feu clic per veure les observacions i els pronòstics meteorològics.

Per canviar el mapa: feu clic els botons verds amb una creu de color negre per apropar; al botó verd amb un guió per allunyar la imatge; o en les fletxes verdes per a mapes adjacents.


METAR-TAF: